createdAt,value
2024-01-24T00:00:36.730Z,69.76
2024-01-24T00:03:13.074Z,69.80
2024-01-24T00:05:47.741Z,69.56
2024-01-24T00:08:27.401Z,68.31
2024-01-24T00:11:12.330Z,68.13
2024-01-24T00:13:54.475Z,68.48
2024-01-24T00:16:29.686Z,69.39
2024-01-24T00:19:02.883Z,69.83
2024-01-24T00:21:36.409Z,69.81
2024-01-24T00:24:09.697Z,70.51
2024-01-24T00:26:49.174Z,71.29
2024-01-24T00:29:27.593Z,70.25
2024-01-24T00:32:01.490Z,70.55
2024-01-24T00:34:34.859Z,70.64
2024-01-24T00:37:07.746Z,70.84
2024-01-24T00:39:40.785Z,70.83
2024-01-24T00:42:17.138Z,71.58
2024-01-24T00:44:52.562Z,71.67
2024-01-24T00:47:25.297Z,72.19
2024-01-24T00:49:58.992Z,72.50
2024-01-24T00:52:31.780Z,73.39
2024-01-24T00:55:08.355Z,73.05
2024-01-24T00:57:45.442Z,72.93
2024-01-24T01:00:18.788Z,73.22
2024-01-24T01:02:50.641Z,73.82
2024-01-24T01:05:27.170Z,74.36
2024-01-24T01:08:02.835Z,74.53
2024-01-24T01:10:38.148Z,74.80
2024-01-24T01:13:22.261Z,75.15
2024-01-24T01:15:55.281Z,75.71
2024-01-24T01:18:28.874Z,75.09
2024-01-24T01:21:04.888Z,75.58
2024-01-24T01:23:38.284Z,75.64
2024-01-24T01:26:10.406Z,75.65
2024-01-24T01:28:46.489Z,76.13
2024-01-24T01:31:20.406Z,75.83
2024-01-24T01:33:54.267Z,76.05
2024-01-24T01:36:30.853Z,75.08
2024-01-24T01:39:06.627Z,75.89
2024-01-24T01:41:39.986Z,75.44
2024-01-24T01:44:24.725Z,76.03
2024-01-24T01:46:57.069Z,76.71
2024-01-24T01:49:32.492Z,77.19
2024-01-24T01:52:06.057Z,78.50
2024-01-24T01:54:41.469Z,78.72
2024-01-24T01:57:16.028Z,78.35
2024-01-24T01:59:50.668Z,78.63
2024-01-24T02:02:25.644Z,78.93
2024-01-24T02:04:59.438Z,78.57
2024-01-24T02:07:32.270Z,78.53
2024-01-24T02:10:04.073Z,79.16
2024-01-24T02:12:37.141Z,79.20
2024-01-24T02:15:17.027Z,79.17
2024-01-24T02:17:49.536Z,79.27
2024-01-24T02:20:23.609Z,79.63
2024-01-24T02:22:59.207Z,79.02
2024-01-24T02:25:34.259Z,78.86
2024-01-24T02:28:09.033Z,78.88
2024-01-24T02:30:47.626Z,79.70
2024-01-24T02:33:23.236Z,80.19
2024-01-24T02:35:59.151Z,80.09
2024-01-24T02:38:33.498Z,81.32
2024-01-24T02:41:09.404Z,81.97
2024-01-24T02:43:40.750Z,81.60
2024-01-24T02:46:16.833Z,81.83
2024-01-24T02:48:51.953Z,81.56
2024-01-24T02:51:30.422Z,81.86
2024-01-24T02:54:03.044Z,81.31
2024-01-24T02:56:38.991Z,82.25
2024-01-24T02:59:16.397Z,82.59
2024-01-24T03:01:53.438Z,83.38
2024-01-24T03:04:30.149Z,83.96
2024-01-24T03:07:02.940Z,83.87
2024-01-24T03:09:35.308Z,83.68
2024-01-24T03:12:14.157Z,83.38
2024-01-24T03:14:49.769Z,83.58
2024-01-24T03:17:22.946Z,84.38
2024-01-24T03:19:55.672Z,84.33
2024-01-24T03:22:28.998Z,84.01
2024-01-24T03:25:01.162Z,84.36
2024-01-24T03:27:43.995Z,84.73
2024-01-24T03:30:18.055Z,84.55
2024-01-24T03:32:50.364Z,84.23
2024-01-24T03:35:27.573Z,85.09
2024-01-24T03:38:01.777Z,85.42
2024-01-24T03:40:37.479Z,85.29
2024-01-24T03:43:21.601Z,85.04
2024-01-24T03:45:54.705Z,84.85
2024-01-24T03:48:30.048Z,85.06
2024-01-24T03:51:03.093Z,84.20
2024-01-24T03:53:41.936Z,83.65
2024-01-24T03:56:14.392Z,83.33
2024-01-24T03:58:51.177Z,83.19
2024-01-24T04:01:23.625Z,83.16
2024-01-24T04:03:56.825Z,82.97
2024-01-24T04:06:33.370Z,83.13
2024-01-24T04:09:05.861Z,82.95
2024-01-24T04:11:38.588Z,82.90
2024-01-24T04:14:14.102Z,82.51
2024-01-24T04:16:45.995Z,82.06
2024-01-24T04:19:18.768Z,81.72
2024-01-24T04:21:51.119Z,81.39
2024-01-24T04:24:26.138Z,80.79
2024-01-24T04:26:59.119Z,80.57
2024-01-24T04:29:33.645Z,80.54
2024-01-24T04:32:12.216Z,80.11
2024-01-24T04:34:46.406Z,79.81
2024-01-24T04:37:20.795Z,79.42
2024-01-24T04:39:53.636Z,79.48
2024-01-24T04:42:27.153Z,79.85
2024-01-24T04:45:01.786Z,79.95
2024-01-24T04:47:33.827Z,81.28
2024-01-24T04:50:10.489Z,81.70
2024-01-24T04:52:42.933Z,81.34
2024-01-24T04:55:18.071Z,82.17
2024-01-24T04:57:57.764Z,83.55
2024-01-24T05:00:33.525Z,83.65
2024-01-24T05:03:07.213Z,83.92
2024-01-24T05:05:41.676Z,83.96
2024-01-24T05:08:26.315Z,84.07
2024-01-24T05:13:51.093Z,84.13
2024-01-24T05:16:44.458Z,84.20
2024-01-24T05:19:16.440Z,84.41
2024-01-24T05:21:50.707Z,84.36
2024-01-24T05:24:24.144Z,83.75
2024-01-24T05:27:06.228Z,84.01
2024-01-24T05:29:39.681Z,83.61
2024-01-24T05:32:15.525Z,83.94
2024-01-24T05:34:48.887Z,84.20
2024-01-24T05:37:22.035Z,84.24
2024-01-24T05:40:02.353Z,83.55
2024-01-24T05:42:40.010Z,82.96
2024-01-24T05:45:21.987Z,82.80
2024-01-24T05:47:57.266Z,82.18
2024-01-24T05:50:36.223Z,82.00
2024-01-24T05:53:11.260Z,81.92
2024-01-24T05:55:44.493Z,81.55
2024-01-24T05:58:18.003Z,80.94
2024-01-24T06:00:49.912Z,80.30
2024-01-24T06:03:24.526Z,81.11
2024-01-24T06:05:57.574Z,81.10
2024-01-24T06:08:31.190Z,81.83
2024-01-24T06:11:07.158Z,81.68
2024-01-24T06:13:48.002Z,81.73
2024-01-24T06:16:24.400Z,82.15
2024-01-24T06:19:02.443Z,82.12
2024-01-24T06:21:43.249Z,81.71
2024-01-24T06:24:20.825Z,81.77
2024-01-24T06:26:55.077Z,82.53
2024-01-24T06:30:15.356Z,81.50
2024-01-24T06:32:20.110Z,81.03
2024-01-24T06:35:02.603Z,80.57
2024-01-24T06:37:36.870Z,80.26
2024-01-24T06:43:07.529Z,81.34
2024-01-24T06:45:46.986Z,81.73
2024-01-24T06:48:24.945Z,81.69
2024-01-24T06:51:07.299Z,81.40
2024-01-24T06:53:42.109Z,81.20
2024-01-24T06:56:16.462Z,81.51
2024-01-24T06:58:49.123Z,81.83
2024-01-24T07:01:21.929Z,82.44
2024-01-24T07:03:55.850Z,82.35
2024-01-24T07:06:31.865Z,81.94
2024-01-24T07:09:08.347Z,82.21
2024-01-24T07:11:43.133Z,81.47
2024-01-24T07:14:19.038Z,81.56
2024-01-24T07:16:52.167Z,82.46
2024-01-24T07:22:17.946Z,82.96
2024-01-24T07:24:50.538Z,82.44
2024-01-24T07:27:23.765Z,82.01
2024-01-24T07:30:05.848Z,82.09
2024-01-24T07:32:41.451Z,81.60
2024-01-24T07:35:14.217Z,81.50
2024-01-24T07:37:49.628Z,81.36
2024-01-24T07:40:22.113Z,82.02
2024-01-24T07:43:00.839Z,81.01
2024-01-24T07:45:40.345Z,81.21
2024-01-24T07:48:16.099Z,81.25
2024-01-24T07:50:50.492Z,81.64
2024-01-24T07:53:28.034Z,81.16
2024-01-24T07:56:11.513Z,81.50
2024-01-24T07:58:59.228Z,81.29
2024-01-24T08:01:32.181Z,81.87
2024-01-24T08:04:05.736Z,82.19
2024-01-24T08:06:40.807Z,81.43
2024-01-24T08:09:19.651Z,81.25
2024-01-24T08:11:53.093Z,80.83
2024-01-24T08:14:30.895Z,80.46
2024-01-24T08:17:08.624Z,79.68
2024-01-24T08:19:40.897Z,78.89
2024-01-24T08:22:16.431Z,78.08
2024-01-24T08:24:52.756Z,78.91
2024-01-24T08:27:31.387Z,78.35
2024-01-24T08:30:19.179Z,77.23
2024-01-24T08:32:56.477Z,76.54
2024-01-24T08:35:29.378Z,75.97
2024-01-24T08:38:04.436Z,75.20
2024-01-24T08:40:41.500Z,74.90
2024-01-24T08:43:24.608Z,72.60
2024-01-24T08:46:00.887Z,71.65
2024-01-24T08:48:36.763Z,72.09
2024-01-24T08:51:11.730Z,70.40
2024-01-24T08:53:46.770Z,70.06
2024-01-24T08:56:29.793Z,69.70
2024-01-24T08:59:01.861Z,69.43
2024-01-24T09:01:34.366Z,69.41
2024-01-24T09:04:06.740Z,69.04
2024-01-24T09:06:40.165Z,68.51
2024-01-24T09:09:16.008Z,67.58
2024-01-24T09:11:56.906Z,66.70
2024-01-24T09:14:33.479Z,66.60
2024-01-24T09:17:10.158Z,65.23
2024-01-24T09:19:48.421Z,64.12
2024-01-24T09:22:20.487Z,64.44
2024-01-24T09:24:53.812Z,64.17
2024-01-24T09:27:29.300Z,64.69
2024-01-24T09:30:01.846Z,63.60
2024-01-24T09:32:34.689Z,64.10
2024-01-24T09:35:12.220Z,62.30
2024-01-24T09:37:50.778Z,61.27
2024-01-24T09:40:26.856Z,61.17
2024-01-24T09:43:09.634Z,58.92
2024-01-24T09:45:44.046Z,59.74
2024-01-24T09:48:19.938Z,59.14
2024-01-24T09:50:54.743Z,58.75
2024-01-24T09:53:31.307Z,58.73
2024-01-24T09:56:05.050Z,57.81
2024-01-24T09:58:46.398Z,59.93
2024-01-24T10:01:24.407Z,59.27
2024-01-24T10:03:59.701Z,58.63
2024-01-24T10:06:36.206Z,58.35
2024-01-24T10:09:12.502Z,58.40
2024-01-24T10:11:44.520Z,57.51
2024-01-24T10:14:21.106Z,56.92
2024-01-24T10:16:55.975Z,57.56
2024-01-24T10:19:29.435Z,56.33
2024-01-24T10:22:01.330Z,55.68
2024-01-24T10:24:33.864Z,55.61
2024-01-24T10:27:07.175Z,55.41
2024-01-24T10:29:52.711Z,54.22
2024-01-24T10:32:26.158Z,54.01
2024-01-24T10:34:59.815Z,53.33
2024-01-24T10:37:32.772Z,53.82
2024-01-24T10:40:13.332Z,55.03
2024-01-24T10:42:47.219Z,54.57
2024-01-24T10:45:41.501Z,54.27
2024-01-24T10:48:17.452Z,54.92
2024-01-24T10:50:53.870Z,56.97
2024-01-24T10:53:29.508Z,55.29
2024-01-24T10:56:03.421Z,54.39
2024-01-24T10:58:46.036Z,54.59
2024-01-24T11:01:27.236Z,54.78
2024-01-24T11:04:03.838Z,53.96
2024-01-24T11:06:58.214Z,54.47
2024-01-24T11:09:38.138Z,54.92
2024-01-24T11:12:11.897Z,53.83
2024-01-24T11:14:50.746Z,54.89
2024-01-24T11:17:26.250Z,53.68
2024-01-24T11:20:07.315Z,55.63
2024-01-24T11:22:57.637Z,54.67
2024-01-24T11:25:43.234Z,55.95
2024-01-24T11:28:29.661Z,56.63
2024-01-24T11:31:02.151Z,57.57
2024-01-24T11:33:36.888Z,57.65
2024-01-24T11:36:16.805Z,57.37
2024-01-24T11:38:50.687Z,56.82
2024-01-24T11:41:31.947Z,57.30
2024-01-24T11:44:16.532Z,58.38
2024-01-24T11:46:54.980Z,58.93
2024-01-24T11:49:35.016Z,59.52
2024-01-24T11:52:10.566Z,59.23
2024-01-24T11:54:57.284Z,60.46
2024-01-24T11:57:34.878Z,59.99
2024-01-24T12:00:11.262Z,60.00
2024-01-24T12:02:46.022Z,61.38
2024-01-24T12:05:26.138Z,61.46
2024-01-24T12:07:59.301Z,60.67
2024-01-24T12:10:35.645Z,60.55
2024-01-24T12:13:12.189Z,60.72
2024-01-24T12:15:56.562Z,60.76
2024-01-24T12:18:34.224Z,61.06
2024-01-24T12:21:13.461Z,60.61
2024-01-24T12:23:50.043Z,60.17
2024-01-24T12:26:23.319Z,59.95
2024-01-24T12:28:59.415Z,59.90
2024-01-24T12:31:33.147Z,59.11
2024-01-24T12:34:05.906Z,59.26
2024-01-24T12:36:42.752Z,59.31
2024-01-24T12:39:22.908Z,58.33
2024-01-24T12:42:05.021Z,56.64
2024-01-24T12:44:39.839Z,57.33
2024-01-24T12:47:11.999Z,56.18
2024-01-24T12:49:47.598Z,56.71
2024-01-24T12:52:25.065Z,56.28
2024-01-24T12:54:57.595Z,56.97
2024-01-24T12:57:42.860Z,58.36
2024-01-24T13:00:21.642Z,58.65
2024-01-24T13:03:02.296Z,58.10
2024-01-24T13:05:42.970Z,59.23
2024-01-24T13:08:23.283Z,60.54
2024-01-24T13:11:06.856Z,61.60
2024-01-24T13:13:40.529Z,61.55
2024-01-24T13:16:16.884Z,60.75
2024-01-24T13:18:56.686Z,61.18
2024-01-24T13:21:32.518Z,60.80
2024-01-24T13:24:09.727Z,60.85
2024-01-24T13:26:49.754Z,60.66
2024-01-24T13:29:26.623Z,60.66
2024-01-24T13:32:04.972Z,60.60
2024-01-24T13:34:42.775Z,60.98
2024-01-24T13:37:18.459Z,60.71
2024-01-24T13:39:56.845Z,60.86
2024-01-24T13:42:29.636Z,60.92
2024-01-24T13:45:05.782Z,61.10
2024-01-24T13:47:41.254Z,61.29
2024-01-24T13:50:15.915Z,61.11
2024-01-24T13:52:49.550Z,61.29
2024-01-24T13:55:33.749Z,61.65
2024-01-24T13:58:09.699Z,62.04
2024-01-24T14:00:43.555Z,62.25
2024-01-24T14:03:24.197Z,62.01
2024-01-24T14:06:02.456Z,62.32
2024-01-24T14:08:37.704Z,62.17
2024-01-24T14:11:18.642Z,62.21
2024-01-24T14:13:54.524Z,62.65
2024-01-24T14:16:34.537Z,63.56
2024-01-24T14:19:07.113Z,63.53
2024-01-24T14:21:40.946Z,64.15
2024-01-24T14:24:16.431Z,64.54
2024-01-24T14:26:58.751Z,65.66
2024-01-24T14:29:34.627Z,66.27
2024-01-24T14:32:11.893Z,66.82
2024-01-24T14:34:48.806Z,67.05
2024-01-24T14:37:28.981Z,67.38
2024-01-24T14:40:05.503Z,67.65
2024-01-24T14:42:41.981Z,67.65
2024-01-24T14:45:16.718Z,68.01
2024-01-24T14:47:51.928Z,68.67
2024-01-24T14:50:35.816Z,68.70
2024-01-24T14:53:14.937Z,68.91
2024-01-24T14:55:56.386Z,68.79
2024-01-24T14:58:35.647Z,68.85
2024-01-24T15:01:12.968Z,68.75
2024-01-24T15:03:49.177Z,69.43
2024-01-24T15:06:37.609Z,69.47
2024-01-24T15:09:14.896Z,69.06
2024-01-24T15:11:49.543Z,69.49
2024-01-24T15:14:26.003Z,69.40
2024-01-24T15:17:01.407Z,69.57
2024-01-24T15:19:49.275Z,69.48
2024-01-24T15:22:26.544Z,70.35
2024-01-24T15:25:00.956Z,70.31
2024-01-24T15:27:33.601Z,70.05
2024-01-24T15:30:10.982Z,70.15
2024-01-24T15:32:48.741Z,70.16
2024-01-24T15:35:24.667Z,70.28
2024-01-24T15:37:56.943Z,70.50
2024-01-24T15:40:32.392Z,70.40
2024-01-24T15:43:22.954Z,70.60
2024-01-24T15:46:07.265Z,70.44
2024-01-24T15:48:42.291Z,70.48
2024-01-24T15:51:18.758Z,70.85
2024-01-24T15:53:58.482Z,70.64
2024-01-24T15:56:34.894Z,71.19
2024-01-24T15:59:11.122Z,71.08
2024-01-24T16:01:59.965Z,71.01
2024-01-24T16:04:35.057Z,71.14
2024-01-24T16:07:12.953Z,71.38
2024-01-24T16:09:46.266Z,71.33
2024-01-24T16:12:18.251Z,71.40
2024-01-24T16:14:55.060Z,71.35
2024-01-24T16:17:29.566Z,71.51
2024-01-24T16:20:05.123Z,71.61
2024-01-24T16:22:39.366Z,71.36
2024-01-24T16:25:22.353Z,71.52
2024-01-24T16:27:54.995Z,71.86
2024-01-24T16:30:35.660Z,71.74
2024-01-24T16:33:10.761Z,71.91
2024-01-24T16:35:44.229Z,71.62
2024-01-24T16:38:17.178Z,71.73
2024-01-24T16:40:53.186Z,71.62
2024-01-24T16:43:32.387Z,71.85
2024-01-24T16:46:05.297Z,71.57
2024-01-24T16:48:45.182Z,71.43
2024-01-24T16:51:26.556Z,71.75
2024-01-24T16:54:00.505Z,71.27
2024-01-24T16:56:33.071Z,71.38
2024-01-24T16:59:08.515Z,71.27
2024-01-24T17:01:51.206Z,70.91
2024-01-24T17:04:33.707Z,70.94
2024-01-24T17:07:08.637Z,70.91
2024-01-24T17:09:52.008Z,70.80
2024-01-24T17:12:38.176Z,70.93
2024-01-24T17:15:16.523Z,71.13
2024-01-24T17:17:52.363Z,71.42
2024-01-24T17:20:30.188Z,71.27
2024-01-24T17:23:04.339Z,71.21
2024-01-24T17:25:37.184Z,71.57
2024-01-24T17:28:13.119Z,71.65
2024-01-24T17:30:46.570Z,71.83
2024-01-24T17:33:20.062Z,71.75
2024-01-24T17:35:55.937Z,71.99
2024-01-24T17:38:28.876Z,72.26
2024-01-24T17:41:06.034Z,72.20
2024-01-24T17:43:39.102Z,72.29
2024-01-24T17:46:12.323Z,72.53
2024-01-24T17:48:44.984Z,72.50
2024-01-24T17:51:26.152Z,72.82
2024-01-24T17:54:09.624Z,72.73
2024-01-24T17:56:56.820Z,72.83
2024-01-24T17:59:30.238Z,72.64
2024-01-24T18:02:11.033Z,72.78
2024-01-24T18:04:46.815Z,72.71
2024-01-24T18:07:25.739Z,72.66
2024-01-24T18:09:58.872Z,72.66
2024-01-24T18:12:32.862Z,72.28
2024-01-24T18:15:06.428Z,71.94
2024-01-24T18:17:42.375Z,71.44
2024-01-24T18:20:20.833Z,71.91
2024-01-24T18:23:08.654Z,71.65
2024-01-24T18:25:41.901Z,71.74
2024-01-24T18:28:16.522Z,72.19
2024-01-24T18:30:50.044Z,72.80
2024-01-24T18:33:26.034Z,73.13
2024-01-24T18:36:01.789Z,73.49
2024-01-24T18:38:40.805Z,73.67
2024-01-24T18:41:12.641Z,73.44
2024-01-24T18:43:47.532Z,73.40
2024-01-24T18:46:21.616Z,73.38
2024-01-24T18:49:09.004Z,73.29
2024-01-24T18:51:44.640Z,73.81
2024-01-24T18:54:24.279Z,73.24
2024-01-24T18:57:04.401Z,73.07
2024-01-24T18:59:41.621Z,72.89
2024-01-24T19:02:16.637Z,73.02
2024-01-24T19:04:54.147Z,73.10
2024-01-24T19:07:30.707Z,73.07
2024-01-24T19:10:14.744Z,73.32
2024-01-24T19:12:47.135Z,73.19
2024-01-24T19:15:29.243Z,73.06
2024-01-24T19:18:10.517Z,73.03
2024-01-24T19:20:47.245Z,73.25
2024-01-24T19:23:20.166Z,73.30
2024-01-24T19:25:58.728Z,73.35
2024-01-24T19:28:35.569Z,73.55
2024-01-24T19:31:20.204Z,73.31
2024-01-24T19:34:03.437Z,73.29
2024-01-24T19:36:52.248Z,73.40
2024-01-24T19:39:27.424Z,72.80
2024-01-24T19:42:06.809Z,73.26
2024-01-24T19:44:43.958Z,73.12
2024-01-24T19:47:23.389Z,73.27
2024-01-24T19:50:07.970Z,73.05
2024-01-24T19:52:45.990Z,73.17
2024-01-24T19:55:28.951Z,72.76
2024-01-24T19:58:08.766Z,72.28
2024-01-24T20:00:52.844Z,72.31
2024-01-24T20:03:25.988Z,72.47
2024-01-24T20:05:59.712Z,72.66
2024-01-24T20:08:36.717Z,72.65
2024-01-24T20:11:12.232Z,72.44
2024-01-24T20:13:48.526Z,72.74
2024-01-24T20:16:21.023Z,72.72
2024-01-24T20:18:53.484Z,73.10
2024-01-24T20:21:25.624Z,73.14
2024-01-24T20:23:57.745Z,73.32
2024-01-24T20:26:49.906Z,73.61
2024-01-24T20:29:28.724Z,73.79
2024-01-24T20:32:03.601Z,73.48
2024-01-24T20:34:40.093Z,74.04
2024-01-24T20:37:16.221Z,73.93
2024-01-24T20:39:51.834Z,73.96
2024-01-24T20:42:28.939Z,74.26
2024-01-24T20:45:05.341Z,74.31
2024-01-24T20:47:38.255Z,74.33
2024-01-24T20:50:12.561Z,74.34
2024-01-24T20:52:45.568Z,74.09
2024-01-24T20:55:18.502Z,73.95
2024-01-24T20:57:53.938Z,73.85
2024-01-24T21:00:35.344Z,73.82
2024-01-24T21:03:08.511Z,74.09
2024-01-24T21:05:45.983Z,73.68
2024-01-24T21:08:21.553Z,74.05
2024-01-24T21:11:03.235Z,74.36
2024-01-24T21:13:41.910Z,74.39
2024-01-24T21:16:20.358Z,74.12
2024-01-24T21:18:53.764Z,73.87
2024-01-24T21:21:32.177Z,74.14
2024-01-24T21:24:05.195Z,73.95
2024-01-24T21:26:40.744Z,73.72
2024-01-24T21:29:15.341Z,74.02
2024-01-24T21:31:55.530Z,73.62
2024-01-24T21:34:33.779Z,73.53
2024-01-24T21:37:07.443Z,73.75
2024-01-24T21:39:40.692Z,73.73
2024-01-24T21:42:13.893Z,73.89
2024-01-24T21:44:47.704Z,74.31
2024-01-24T21:47:26.512Z,73.88
2024-01-24T21:49:59.459Z,74.01
2024-01-24T21:52:32.000Z,73.91
2024-01-24T21:55:05.185Z,73.52
2024-01-24T21:57:37.353Z,73.61
2024-01-24T22:00:12.381Z,73.74
2024-01-24T22:02:48.171Z,73.39
2024-01-24T22:05:24.690Z,73.38
2024-01-24T22:07:57.973Z,73.14
2024-01-24T22:10:32.434Z,72.96
2024-01-24T22:13:06.824Z,73.24
2024-01-24T22:15:43.801Z,73.36
2024-01-24T22:18:19.805Z,73.32
2024-01-24T22:20:54.006Z,73.31
2024-01-24T22:23:31.319Z,73.48
2024-01-24T22:26:06.580Z,73.58
2024-01-24T22:28:39.510Z,73.90
2024-01-24T22:31:12.557Z,73.43
2024-01-24T22:33:48.814Z,73.78
2024-01-24T22:36:22.484Z,73.85
2024-01-24T22:39:01.031Z,73.45
2024-01-24T22:41:35.412Z,73.26
2024-01-24T22:44:08.286Z,73.18
2024-01-24T22:46:43.583Z,73.04
2024-01-24T22:49:17.984Z,73.13
2024-01-24T22:51:50.051Z,73.32
2024-01-24T22:54:22.116Z,72.97
2024-01-24T22:56:54.608Z,73.24
2024-01-24T22:59:50.088Z,73.10
2024-01-24T23:02:26.228Z,73.07
2024-01-24T23:05:03.604Z,73.01
2024-01-24T23:07:39.353Z,72.81
2024-01-24T23:10:14.051Z,72.62
2024-01-24T23:12:49.486Z,72.64
2024-01-24T23:15:24.225Z,72.37
2024-01-24T23:17:57.122Z,72.48
2024-01-24T23:20:32.114Z,72.53
2024-01-24T23:23:05.818Z,72.31
2024-01-24T23:25:41.286Z,71.99
2024-01-24T23:28:15.221Z,71.95
2024-01-24T23:30:50.700Z,71.76
2024-01-24T23:33:27.315Z,71.65
2024-01-24T23:36:13.506Z,71.52
2024-01-24T23:38:52.594Z,71.46
2024-01-24T23:41:25.590Z,71.94
2024-01-24T23:43:59.498Z,71.82
2024-01-24T23:46:35.454Z,71.70
2024-01-24T23:49:29.573Z,71.36
2024-01-24T23:52:04.825Z,71.31
2024-01-24T23:54:39.607Z,71.53
2024-01-24T23:57:14.711Z,71.60
2024-01-24T23:59:49.141Z,71.47
